createdAt,value
2019-02-20T00:02:57.316Z,20.37
2019-02-20T00:08:01.268Z,22.83
2019-02-20T00:13:05.375Z,19.20
2019-02-20T00:18:09.228Z,28.67
2019-02-20T00:23:13.264Z,16.03
2019-02-20T00:28:17.223Z,16.07
2019-02-20T00:33:21.443Z,19.93
2019-02-20T00:38:25.397Z,25.87
2019-02-20T00:43:29.415Z,18.60
2019-02-20T00:48:47.188Z,19.90
2019-02-20T00:53:55.306Z,25.67
2019-02-20T00:58:59.270Z,21.77
2019-02-20T01:04:03.398Z,25.23
2019-02-20T01:09:08.051Z,23.43
2019-02-20T01:14:12.142Z,17.57
2019-02-20T01:19:16.040Z,21.30
2019-02-20T01:24:19.929Z,23.20
2019-02-20T01:29:23.788Z,23.47
2019-02-20T01:34:27.918Z,21.63
2019-02-20T01:39:32.132Z,22.87
2019-02-20T01:44:36.127Z,27.30
2019-02-20T01:49:40.091Z,30.40
2019-02-20T01:54:44.198Z,25.27
2019-02-20T01:59:48.086Z,21.30
2019-02-20T02:04:52.036Z,23.53
2019-02-20T02:09:56.030Z,25.87
2019-02-20T02:14:59.834Z,28.63
2019-02-20T02:20:03.642Z,25.97
2019-02-20T02:25:07.460Z,30.20
2019-02-20T02:30:12.306Z,29.17
2019-02-20T02:35:16.246Z,24.40
2019-02-20T02:40:20.061Z,25.07
2019-02-20T02:45:23.929Z,23.73
2019-02-20T02:50:27.874Z,23.83
2019-02-20T02:55:31.698Z,20.10
2019-02-20T03:00:35.526Z,27.17
2019-02-20T03:05:39.434Z,31.47
2019-02-20T03:10:43.598Z,25.93
2019-02-20T03:15:47.796Z,25.37
2019-02-20T03:20:51.608Z,26.27
2019-02-20T03:25:55.406Z,24.43
2019-02-20T03:30:59.325Z,22.30
2019-02-20T03:36:03.194Z,27.13
2019-02-20T03:41:06.982Z,24.50
2019-02-20T03:46:10.821Z,24.77
2019-02-20T03:51:14.659Z,27.00
2019-02-20T03:56:18.582Z,27.90
2019-02-20T04:01:22.400Z,23.77
2019-02-20T04:06:26.234Z,28.27
2019-02-20T04:11:30.083Z,27.33
2019-02-20T04:16:33.890Z,25.73
2019-02-20T04:21:37.787Z,30.37
2019-02-20T04:26:41.665Z,33.60
2019-02-20T04:31:45.666Z,27.67
2019-02-20T04:36:49.523Z,21.00
2019-02-20T04:41:53.337Z,26.77
2019-02-20T04:46:57.261Z,32.33
2019-02-20T04:52:01.194Z,29.93
2019-02-20T04:57:04.993Z,30.63
2019-02-20T05:02:08.815Z,26.27
2019-02-20T05:07:12.711Z,33.53
2019-02-20T05:12:16.646Z,25.67
2019-02-20T05:17:20.625Z,28.50
2019-02-20T05:22:24.470Z,29.93
2019-02-20T05:27:28.380Z,22.77
2019-02-20T05:32:32.279Z,26.57
2019-02-20T05:37:36.104Z,23.63
2019-02-20T05:42:39.968Z,24.50
2019-02-20T05:47:43.794Z,22.30
2019-02-20T05:52:47.611Z,26.53
2019-02-20T05:57:51.499Z,26.67
2019-02-20T06:02:55.350Z,27.77
2019-02-20T06:07:59.139Z,23.07
2019-02-20T06:13:02.960Z,29.57
2019-02-20T06:18:06.805Z,26.50
2019-02-20T06:23:10.602Z,28.10
2019-02-20T06:28:14.446Z,27.70
2019-02-20T06:33:18.343Z,21.50
2019-02-20T06:38:22.376Z,26.93
2019-02-20T06:43:26.368Z,31.40
2019-02-20T06:48:30.266Z,28.57
2019-02-20T06:53:34.434Z,30.30
2019-02-20T06:58:38.360Z,20.83
2019-02-20T07:03:42.797Z,21.20
2019-02-20T07:09:33.515Z,23.33
2019-02-20T07:15:08.160Z,29.23
2019-02-20T07:21:08.066Z,28.93
2019-02-20T07:26:45.073Z,21.47
2019-02-20T07:31:49.074Z,27.40
2019-02-20T07:36:52.976Z,23.13
2019-02-20T07:41:56.971Z,27.40
2019-02-20T07:47:02.458Z,25.33
2019-02-20T07:52:06.455Z,22.93
2019-02-20T07:57:10.456Z,25.13
2019-02-20T08:02:14.413Z,31.43
2019-02-20T08:07:18.436Z,19.70
2019-02-20T08:12:22.426Z,24.33
2019-02-20T08:17:26.632Z,22.13
2019-02-20T08:22:30.557Z,19.60
2019-02-20T08:27:34.482Z,29.00
2019-02-20T08:32:38.486Z,26.60
2019-02-20T08:37:42.325Z,24.40
2019-02-20T08:42:46.244Z,23.07
2019-02-20T08:47:50.558Z,25.37
2019-02-20T08:52:54.530Z,31.87
2019-02-20T08:57:58.534Z,23.93
2019-02-20T09:03:02.522Z,26.33
2019-02-20T09:08:06.434Z,23.40
2019-02-20T09:13:10.384Z,29.77
2019-02-20T09:18:14.360Z,25.50
2019-02-20T09:23:18.282Z,28.83
2019-02-20T09:28:22.969Z,27.87
2019-02-20T09:33:27.391Z,24.40
2019-02-20T09:38:31.272Z,27.77
2019-02-20T09:43:35.227Z,29.93
2019-02-20T09:48:39.232Z,41.40
2019-02-20T09:53:43.254Z,27.77
2019-02-20T09:58:47.168Z,28.03
2019-02-20T10:03:51.094Z,35.77
2019-02-20T10:08:55.145Z,34.73
2019-02-20T10:13:59.184Z,34.97
2019-02-20T10:19:03.228Z,30.60
2019-02-20T10:24:07.169Z,32.33
2019-02-20T10:29:11.166Z,27.93
2019-02-20T10:34:15.152Z,29.63
2019-02-20T10:39:19.190Z,29.03
2019-02-20T10:44:23.034Z,28.17
2019-02-20T10:49:27.223Z,25.90
2019-02-20T10:54:31.148Z,33.03
2019-02-20T10:59:35.171Z,29.37
2019-02-20T11:04:39.071Z,26.97
2019-02-20T11:09:42.992Z,29.70
2019-02-20T11:14:48.913Z,31.40
2019-02-20T11:19:52.912Z,28.37
2019-02-20T11:24:56.747Z,22.23
2019-02-20T11:30:00.842Z,24.77
2019-02-20T11:35:05.787Z,27.23
2019-02-20T11:40:10.881Z,26.43
2019-02-20T11:45:15.222Z,31.65
2019-02-20T11:50:19.379Z,23.15
2019-02-20T11:55:24.042Z,24.98
2019-02-20T12:00:28.396Z,25.20
2019-02-20T12:05:32.373Z,16.73
2019-02-20T12:10:37.329Z,23.65
2019-02-20T12:15:42.192Z,22.55
2019-02-20T12:20:46.420Z,20.00
2019-02-20T12:25:50.422Z,19.25
2019-02-20T12:30:54.404Z,15.55
2019-02-20T12:35:58.291Z,24.32
2019-02-20T12:41:02.196Z,16.73
2019-02-20T12:46:06.063Z,19.23
2019-02-20T12:51:10.207Z,21.75
2019-02-20T12:56:14.172Z,20.70
2019-02-20T13:01:18.135Z,23.27
2019-02-20T13:06:22.063Z,15.20
2019-02-20T13:11:26.252Z,21.95
2019-02-20T13:16:30.238Z,18.52
2019-02-20T13:21:34.247Z,20.80
2019-02-20T13:26:41.065Z,26.68
2019-02-20T13:31:44.896Z,15.25
2019-02-20T13:36:48.960Z,16.87
2019-02-20T13:41:52.964Z,17.23
2019-02-20T13:46:56.955Z,16.90
2019-02-20T13:52:01.244Z,17.37
2019-02-20T13:57:05.458Z,21.00
2019-02-20T14:02:11.221Z,19.82
2019-02-20T14:07:15.045Z,19.77
2019-02-20T14:12:18.947Z,17.57
2019-02-20T14:17:26.758Z,17.23
2019-02-20T14:22:28.726Z,15.00
2019-02-20T14:27:33.108Z,11.97
2019-02-20T14:32:36.968Z,15.98
2019-02-20T14:37:40.980Z,15.25
2019-02-20T14:42:45.163Z,19.23
2019-02-20T14:47:48.970Z,13.90
2019-02-20T14:52:53.480Z,11.78
2019-02-20T14:57:57.462Z,13.38
2019-02-20T15:03:01.380Z,14.43
2019-02-20T15:08:05.580Z,14.05
2019-02-20T15:13:09.708Z,16.35
2019-02-20T15:18:14.116Z,13.43
2019-02-20T15:23:18.199Z,17.07
2019-02-20T15:28:22.128Z,15.65
2019-02-20T15:33:26.249Z,12.68
2019-02-20T15:38:30.183Z,10.78
2019-02-20T15:43:34.590Z,21.45
2019-02-20T15:48:38.842Z,14.45
2019-02-20T15:53:42.965Z,16.57
2019-02-20T15:58:47.047Z,15.13
2019-02-20T16:03:50.990Z,19.75
2019-02-20T16:08:55.161Z,18.60
2019-02-20T16:14:00.818Z,19.10
2019-02-20T16:19:04.790Z,18.52
2019-02-20T16:24:08.708Z,15.32
2019-02-20T16:29:13.653Z,15.00
2019-02-20T16:34:18.069Z,15.93
2019-02-20T16:39:21.924Z,15.68
2019-02-20T16:44:26.001Z,15.93
2019-02-20T16:49:29.918Z,18.73
2019-02-20T16:54:33.992Z,14.13
2019-02-20T16:59:38.286Z,14.45
2019-02-20T17:04:42.345Z,10.80
2019-02-20T17:09:46.418Z,11.90
2019-02-20T17:14:50.582Z,16.50
2019-02-20T17:19:54.842Z,15.85
2019-02-20T17:24:59.130Z,15.72
2019-02-20T17:30:03.241Z,17.55
2019-02-20T17:35:08.955Z,18.82
2019-02-20T17:40:13.699Z,13.75
2019-02-20T17:45:17.713Z,16.35
2019-02-20T17:50:21.975Z,14.47
2019-02-20T17:55:25.983Z,16.75
2019-02-20T18:00:30.415Z,18.12
2019-02-20T18:05:34.398Z,17.32
2019-02-20T18:10:38.320Z,20.48
2019-02-20T18:15:42.363Z,20.80
2019-02-20T18:20:46.335Z,18.30
2019-02-20T18:25:50.224Z,20.80
2019-02-20T18:30:54.190Z,24.70
2019-02-20T18:35:58.105Z,22.13
2019-02-20T18:41:02.650Z,19.67
2019-02-20T18:46:06.746Z,18.07
2019-02-20T18:51:10.773Z,23.55
2019-02-20T18:56:15.106Z,21.42
2019-02-20T19:01:19.211Z,27.15
2019-02-20T19:06:23.193Z,23.95
2019-02-20T19:11:40.836Z,18.27
2019-02-20T19:17:10.080Z,19.63
2019-02-20T19:22:42.513Z,17.63
2019-02-20T19:28:18.920Z,17.43
2019-02-20T19:33:56.813Z,22.20
2019-02-20T19:39:21.962Z,20.93
2019-02-20T19:44:47.733Z,19.97
2019-02-20T19:50:14.887Z,17.50
2019-02-20T19:55:31.592Z,24.10
2019-02-20T20:01:14.678Z,23.57
2019-02-20T20:07:02.671Z,20.27
2019-02-20T20:12:44.683Z,21.00
2019-02-20T20:18:21.609Z,19.77
2019-02-20T20:23:48.645Z,24.13
2019-02-20T20:29:27.427Z,25.13
2019-02-20T20:35:34.106Z,19.27
2019-02-20T20:41:14.002Z,22.10
2019-02-20T20:46:35.264Z,23.10
2019-02-20T20:52:12.018Z,20.57
2019-02-20T20:57:23.421Z,24.73
2019-02-20T21:02:41.660Z,19.50
2019-02-20T21:08:15.883Z,23.07
2019-02-20T21:13:54.240Z,21.47
2019-02-20T21:19:31.668Z,20.17
2019-02-20T21:25:23.631Z,17.57
2019-02-20T21:31:02.020Z,19.73
2019-02-20T21:36:12.778Z,21.23
2019-02-20T21:42:02.280Z,20.03
2019-02-20T21:47:16.096Z,22.83
2019-02-20T21:53:02.410Z,26.10
2019-02-20T21:58:56.700Z,22.50
2019-02-20T22:04:38.268Z,19.83
2019-02-20T22:10:09.660Z,19.43
2019-02-20T22:15:34.964Z,25.07
2019-02-20T22:21:10.636Z,20.07
2019-02-20T22:27:14.171Z,19.13
2019-02-20T22:32:39.041Z,18.10
2019-02-20T22:38:00.036Z,15.13
2019-02-20T22:43:51.588Z,23.50
2019-02-20T22:49:28.396Z,16.47
2019-02-20T22:55:31.700Z,20.57
2019-02-20T23:01:16.540Z,16.20
2019-02-20T23:06:46.246Z,21.87
2019-02-20T23:12:14.549Z,20.77
2019-02-20T23:17:18.363Z,23.93
2019-02-20T23:22:22.265Z,23.17
2019-02-20T23:27:26.328Z,22.57
2019-02-20T23:32:30.325Z,24.37
2019-02-20T23:37:34.302Z,24.70
2019-02-20T23:42:38.766Z,22.60
2019-02-20T23:47:42.770Z,21.80
2019-02-20T23:52:47.270Z,24.97
2019-02-20T23:57:51.254Z,23.93
